createdAt,value
2018-04-02T00:02:17.972Z,12.60
2018-04-02T00:04:45.589Z,12.13
2018-04-02T00:07:13.406Z,12.50
2018-04-02T00:09:41.173Z,14.40
2018-04-02T00:12:08.790Z,14.83
2018-04-02T00:14:36.403Z,11.70
2018-04-02T00:17:04.257Z,14.77
2018-04-02T00:19:32.632Z,14.50
2018-04-02T00:22:01.020Z,10.97
2018-04-02T00:24:30.010Z,13.23
2018-04-02T00:26:57.976Z,13.03
2018-04-02T00:29:25.636Z,12.27
2018-04-02T00:31:55.112Z,14.30
2018-04-02T00:34:22.730Z,13.53
2018-04-02T00:36:50.353Z,14.18
2018-04-02T00:39:18.785Z,12.70
2018-04-02T00:41:46.461Z,12.23
2018-04-02T00:44:14.144Z,12.20
2018-04-02T00:46:41.810Z,12.52
2018-04-02T00:49:09.434Z,12.90
2018-04-02T00:51:37.049Z,12.90
2018-04-02T00:54:04.702Z,11.60
2018-04-02T00:56:32.313Z,11.43
2018-04-02T00:58:59.977Z,12.60
2018-04-02T01:01:27.607Z,11.30
2018-04-02T01:03:55.264Z,11.30
2018-04-02T01:06:22.885Z,11.52
2018-04-02T01:08:50.540Z,10.77
2018-04-02T01:11:18.160Z,11.75
2018-04-02T01:13:46.010Z,11.10
2018-04-02T01:16:13.633Z,11.38
2018-04-02T01:18:41.288Z,11.40
2018-04-02T01:21:09.162Z,11.70
2018-04-02T01:23:37.545Z,10.05
2018-04-02T01:26:05.973Z,9.27
2018-04-02T01:28:33.701Z,10.90
2018-04-02T01:31:01.365Z,10.63
2018-04-02T01:33:29.780Z,11.30
2018-04-02T01:35:57.560Z,11.45
2018-04-02T01:38:25.209Z,10.50
2018-04-02T01:40:52.865Z,11.20
2018-04-02T01:43:20.517Z,9.67
2018-04-02T01:45:48.221Z,9.93
2018-04-02T01:48:16.673Z,10.88
2018-04-02T01:50:44.923Z,10.00
2018-04-02T01:53:12.541Z,9.02
2018-04-02T01:55:40.961Z,10.35
2018-04-02T01:58:08.665Z,11.05
2018-04-02T02:00:36.315Z,10.38
2018-04-02T02:03:03.984Z,10.27
2018-04-02T02:05:31.634Z,10.70
2018-04-02T02:07:59.306Z,10.80
2018-04-02T02:10:27.165Z,10.37
2018-04-02T02:12:54.926Z,9.90
2018-04-02T02:15:22.548Z,10.35
2018-04-02T02:17:50.161Z,10.40
2018-04-02T02:20:17.824Z,9.50
2018-04-02T02:22:45.613Z,10.17
2018-04-02T02:25:14.028Z,9.77
2018-04-02T02:27:41.644Z,10.43
2018-04-02T02:30:09.313Z,10.67
2018-04-02T02:32:36.933Z,10.00
2018-04-02T02:35:04.648Z,10.40
2018-04-02T02:37:32.266Z,10.67
2018-04-02T02:39:59.935Z,10.98
2018-04-02T02:42:27.545Z,12.10
2018-04-02T02:44:55.160Z,11.57
2018-04-02T02:47:23.620Z,11.87
2018-04-02T02:49:51.288Z,11.60
2018-04-02T02:52:18.961Z,13.07
2018-04-02T02:54:46.603Z,11.68
2018-04-02T02:57:14.297Z,13.80
2018-04-02T02:59:41.922Z,11.95
2018-04-02T03:02:09.598Z,12.30
2018-04-02T03:04:38.166Z,12.95
2018-04-02T03:07:05.927Z,12.03
2018-04-02T03:09:33.590Z,12.43
2018-04-02T03:12:01.212Z,10.20
2018-04-02T03:14:28.866Z,11.75
2018-04-02T03:16:56.521Z,12.30
2018-04-02T03:19:24.184Z,11.50
2018-04-02T03:21:51.805Z,12.13
2018-04-02T03:24:19.653Z,10.60
2018-04-02T03:26:47.269Z,13.47
2018-04-02T03:29:15.512Z,12.80
2018-04-02T03:31:43.897Z,11.63
2018-04-02T03:34:12.316Z,11.80
2018-04-02T03:36:40.006Z,12.63
2018-04-02T03:39:07.675Z,12.18
2018-04-02T03:41:35.324Z,13.23
2018-04-02T03:44:02.990Z,11.90
2018-04-02T03:46:30.624Z,11.95
2018-04-02T03:48:58.286Z,12.90
2018-04-02T03:51:25.938Z,13.27
2018-04-02T03:53:53.594Z,14.00
2018-04-02T03:56:21.213Z,12.50
2018-04-02T03:58:49.656Z,12.70
2018-04-02T04:01:17.319Z,12.77
2018-04-02T04:03:46.812Z,14.24
2018-04-02T04:06:14.448Z,14.25
2018-04-02T04:08:42.112Z,13.97
2018-04-02T04:11:09.740Z,14.75
2018-04-02T04:13:37.357Z,14.52
2018-04-02T04:16:05.022Z,13.95
2018-04-02T04:18:32.702Z,14.90
2018-04-02T04:21:00.346Z,14.97
2018-04-02T04:23:28.020Z,15.27
2018-04-02T04:25:55.679Z,15.70
2018-04-02T04:28:23.324Z,14.38
2018-04-02T04:30:50.956Z,17.00
2018-04-02T04:33:18.618Z,14.68
2018-04-02T04:35:46.241Z,14.10
2018-04-02T04:38:14.686Z,14.38
2018-04-02T04:40:42.345Z,14.23
2018-04-02T04:43:10.020Z,14.80
2018-04-02T04:45:37.636Z,14.57
2018-04-02T04:48:05.313Z,14.98
2018-04-02T04:50:32.933Z,15.33
2018-04-02T04:53:01.370Z,14.73
2018-04-02T04:55:29.029Z,15.77
2018-04-02T04:57:56.659Z,16.23
2018-04-02T05:00:24.285Z,15.30
2018-04-02T05:02:52.729Z,15.13
2018-04-02T05:05:20.469Z,15.95
2018-04-02T05:07:48.136Z,14.97
2018-04-02T05:10:16.308Z,15.17
2018-04-02T05:12:43.934Z,14.70
2018-04-02T05:15:11.607Z,15.67
2018-04-02T05:17:39.282Z,15.07
2018-04-02T05:20:07.713Z,15.87
2018-04-02T05:22:35.583Z,15.65
2018-04-02T05:25:03.207Z,16.80
2018-04-02T05:27:31.453Z,14.10
2018-04-02T05:29:59.092Z,16.40
2018-04-02T05:32:26.750Z,15.35
2018-04-02T05:34:54.850Z,14.30
2018-04-02T05:37:22.510Z,13.87
2018-04-02T05:39:50.313Z,13.80
2018-04-02T05:42:17.976Z,13.40
2018-04-02T05:44:45.774Z,13.97
2018-04-02T05:47:14.137Z,16.15
2018-04-02T05:49:41.792Z,15.00
2018-04-02T05:52:09.419Z,13.93
2018-04-02T05:54:37.094Z,13.82
2018-04-02T05:57:04.717Z,14.07
2018-04-02T05:59:32.381Z,14.23
2018-04-02T06:02:00.673Z,13.90
2018-04-02T06:04:28.295Z,14.70
2018-04-02T06:06:56.524Z,14.00
2018-04-02T06:09:24.215Z,12.83
2018-04-02T06:11:51.888Z,13.98
2018-04-02T06:14:19.544Z,14.97
2018-04-02T06:16:47.341Z,13.20
2018-04-02T06:19:15.203Z,12.17
2018-04-02T06:21:44.189Z,12.25
2018-04-02T06:24:13.224Z,12.98
2018-04-02T06:26:41.826Z,12.35
2018-04-02T06:29:21.161Z,12.80
2018-04-02T06:31:48.817Z,11.20
2018-04-02T06:34:16.438Z,11.50
2018-04-02T06:36:44.847Z,13.13
2018-04-02T06:39:13.278Z,13.18
2018-04-02T06:41:41.468Z,12.37
2018-04-02T06:44:09.092Z,11.40
2018-04-02T06:46:37.186Z,12.10
2018-04-02T06:49:04.829Z,11.10
2018-04-02T06:51:35.024Z,10.97
2018-04-02T06:54:03.745Z,12.27
2018-04-02T06:56:31.747Z,11.07
2018-04-02T06:58:59.601Z,9.90
2018-04-02T07:01:27.357Z,9.40
2018-04-02T07:03:55.165Z,9.70
2018-04-02T07:06:23.586Z,11.07
2018-04-02T07:08:51.224Z,9.25
2018-04-02T07:11:19.486Z,9.40
2018-04-02T07:13:47.716Z,10.05
2018-04-02T07:16:15.563Z,9.85
2018-04-02T07:18:43.236Z,9.03
2018-04-02T07:21:10.850Z,8.45
2018-04-02T07:23:38.542Z,8.17
2018-04-02T07:26:06.148Z,8.65
2018-04-02T07:28:33.799Z,7.10
2018-04-02T07:31:01.429Z,7.73
2018-04-02T07:33:29.444Z,7.80
2018-04-02T07:35:57.266Z,8.47
2018-04-02T07:38:24.887Z,7.55
2018-04-02T07:40:52.557Z,7.50
2018-04-02T07:43:22.231Z,6.30
2018-04-02T07:45:49.880Z,5.77
2018-04-02T07:48:18.315Z,4.85
2018-04-02T07:50:45.928Z,5.03
2018-04-02T07:53:13.848Z,3.55
2018-04-02T07:55:41.669Z,3.13
2018-04-02T07:58:09.372Z,4.57
2018-04-02T08:00:37.437Z,4.20
2018-04-02T08:03:05.064Z,3.70
2018-04-02T08:05:32.687Z,3.03
2018-04-02T08:08:01.817Z,4.07
2018-04-02T08:10:29.809Z,3.73
2018-04-02T08:12:57.795Z,4.70
2018-04-02T08:15:25.824Z,3.12
2018-04-02T08:17:53.794Z,3.55
2018-04-02T08:20:22.419Z,3.90
2018-04-02T08:22:50.036Z,3.83
2018-04-02T08:25:17.746Z,3.85
2018-04-02T08:27:45.369Z,3.70
2018-04-02T08:30:13.465Z,3.40
2018-04-02T08:32:41.151Z,3.40
2018-04-02T08:35:08.768Z,3.62
2018-04-02T08:37:36.413Z,2.60
2018-04-02T08:40:04.641Z,3.60
2018-04-02T08:42:32.493Z,3.85
2018-04-02T08:45:00.106Z,3.87
2018-04-02T08:47:27.757Z,3.80
2018-04-02T08:49:56.179Z,4.37
2018-04-02T08:52:23.833Z,3.87
2018-04-02T08:54:51.450Z,4.80
2018-04-02T08:57:19.093Z,3.65
2018-04-02T08:59:47.301Z,3.13
2018-04-02T09:02:14.945Z,3.67
2018-04-02T09:04:42.560Z,4.28
2018-04-02T09:07:10.398Z,3.57
2018-04-02T09:09:38.050Z,4.43
2018-04-02T09:12:05.700Z,4.43
2018-04-02T09:14:33.348Z,3.70
2018-04-02T09:17:01.726Z,3.90
2018-04-02T09:19:30.109Z,3.53
2018-04-02T09:21:57.765Z,3.10
2018-04-02T09:24:25.390Z,3.40
2018-04-02T09:26:53.817Z,3.77
2018-04-02T09:29:21.432Z,3.70
2018-04-02T09:31:49.277Z,3.87
2018-04-02T09:34:16.961Z,4.40
2018-04-02T09:36:44.605Z,4.00
2018-04-02T09:39:12.219Z,4.27
2018-04-02T09:41:39.835Z,4.30
2018-04-02T09:44:07.694Z,3.23
2018-04-02T09:46:35.305Z,4.17
2018-04-02T09:49:03.385Z,4.37
2018-04-02T09:51:31.625Z,4.03
2018-04-02T09:53:59.864Z,3.83
2018-04-02T09:56:27.524Z,4.32
2018-04-02T09:58:55.180Z,3.70
2018-04-02T10:01:22.801Z,3.05
2018-04-02T10:03:55.277Z,3.87
2018-04-02T10:06:23.607Z,4.37
2018-04-02T10:08:51.262Z,4.40
2018-04-02T10:11:18.873Z,3.97
2018-04-02T10:13:46.567Z,4.80
2018-04-02T10:16:14.185Z,4.00
2018-04-02T10:18:41.889Z,4.68
2018-04-02T10:21:09.581Z,4.28
2018-04-02T10:23:37.193Z,4.03
2018-04-02T10:26:04.810Z,4.47
2018-04-02T10:28:34.269Z,4.07
2018-04-02T10:31:01.965Z,4.35
2018-04-02T10:33:29.576Z,4.53
2018-04-02T10:35:57.238Z,4.27
2018-04-02T10:38:24.844Z,4.35
2018-04-02T10:40:52.485Z,4.43
2018-04-02T10:43:20.188Z,4.40
2018-04-02T10:45:47.844Z,4.37
2018-04-02T10:48:16.221Z,4.00
2018-04-02T10:50:44.594Z,5.00
2018-04-02T10:53:13.009Z,5.10
2018-04-02T10:55:41.389Z,4.40
2018-04-02T10:58:09.692Z,4.90
2018-04-02T11:00:37.309Z,5.67
2018-04-02T11:03:04.960Z,5.07
2018-04-02T11:05:32.573Z,4.80
2018-04-02T11:08:00.223Z,4.80
2018-04-02T11:10:27.883Z,4.50
2018-04-02T11:12:55.497Z,4.53
2018-04-02T11:15:23.145Z,5.83
2018-04-02T11:17:51.553Z,4.93
2018-04-02T11:20:19.190Z,4.90
2018-04-02T11:22:47.018Z,5.00
2018-04-02T11:25:15.193Z,4.60
2018-04-02T11:27:42.883Z,3.67
2018-04-02T11:30:11.260Z,4.67
2018-04-02T11:32:39.672Z,4.80
2018-04-02T11:35:07.369Z,5.00
2018-04-02T11:37:35.017Z,5.03
2018-04-02T11:40:02.885Z,4.53
2018-04-02T11:42:30.542Z,5.90
2018-04-02T11:44:58.626Z,5.67
2018-04-02T11:47:26.238Z,5.27
2018-04-02T11:49:54.132Z,4.90
2018-04-02T11:52:21.758Z,5.45
2018-04-02T11:54:49.408Z,4.87
2018-04-02T11:57:17.105Z,4.37
2018-04-02T11:59:44.749Z,5.00
2018-04-02T12:02:12.384Z,4.85
2018-04-02T12:04:40.029Z,4.70
2018-04-02T12:07:07.688Z,4.80
2018-04-02T12:09:35.404Z,4.20
2018-04-02T12:12:03.188Z,5.00
2018-04-02T12:14:30.845Z,4.83
2018-04-02T12:16:58.452Z,4.03
2018-04-02T12:19:26.865Z,4.50
2018-04-02T12:21:54.590Z,4.80
2018-04-02T12:24:22.969Z,3.63
2018-04-02T12:26:51.388Z,4.43
2018-04-02T12:29:19.232Z,4.27
2018-04-02T12:31:46.885Z,4.32
2018-04-02T12:34:14.509Z,4.85
2018-04-02T12:36:42.173Z,4.43
2018-04-02T12:39:09.831Z,5.53
2018-04-02T12:41:37.483Z,6.37
2018-04-02T12:44:05.088Z,6.87
2018-04-02T12:46:32.930Z,5.40
2018-04-02T12:49:00.543Z,5.77
2018-04-02T12:51:28.205Z,5.28
2018-04-02T12:53:56.153Z,6.30
2018-04-02T12:56:23.776Z,7.63
2018-04-02T12:58:52.165Z,6.20
2018-04-02T13:01:20.890Z,6.18
2018-04-02T13:03:49.134Z,7.07
2018-04-02T13:06:16.750Z,6.27
2018-04-02T13:08:44.574Z,7.07
2018-04-02T13:11:12.266Z,7.40
2018-04-02T13:13:39.929Z,6.60
2018-04-02T13:16:07.585Z,6.73
2018-04-02T13:18:35.208Z,7.18
2018-04-02T13:21:02.856Z,7.77
2018-04-02T13:23:30.517Z,8.37
2018-04-02T13:25:58.166Z,7.40
2018-04-02T13:28:26.586Z,7.97
2018-04-02T13:30:54.224Z,7.27
2018-04-02T13:33:22.005Z,8.00
2018-04-02T13:35:49.777Z,8.57
2018-04-02T13:38:17.446Z,7.45
2018-04-02T13:40:45.217Z,7.27
2018-04-02T13:43:12.873Z,7.97
2018-04-02T13:45:41.868Z,8.60
2018-04-02T13:48:10.469Z,7.60
2018-04-02T13:50:38.196Z,7.00
2018-04-02T13:53:05.834Z,7.82
2018-04-02T13:55:33.634Z,6.77
2018-04-02T13:58:01.250Z,7.57
2018-04-02T14:00:31.361Z,7.37
2018-04-02T14:02:58.973Z,6.93
2018-04-02T14:05:27.997Z,7.07
2018-04-02T14:07:55.610Z,7.20
2018-04-02T14:10:23.287Z,6.67
2018-04-02T14:12:50.905Z,6.93
2018-04-02T14:15:18.589Z,5.70
2018-04-02T14:17:46.437Z,6.22
2018-04-02T14:20:14.401Z,5.70
2018-04-02T14:22:42.068Z,5.87
2018-04-02T14:25:09.684Z,5.75
2018-04-02T14:27:38.120Z,5.80
2018-04-02T14:30:06.246Z,6.80
2018-04-02T14:32:35.999Z,6.50
2018-04-02T14:35:06.121Z,7.03
2018-04-02T14:37:35.393Z,6.78
2018-04-02T14:40:03.054Z,7.60
2018-04-02T14:42:30.677Z,6.85
2018-04-02T14:44:58.331Z,6.22
2018-04-02T14:47:30.015Z,6.12
2018-04-02T14:49:57.728Z,6.47
2018-04-02T14:52:25.887Z,7.00
2018-04-02T14:54:55.514Z,6.20
2018-04-02T14:57:26.091Z,6.20
2018-04-02T14:59:54.789Z,6.90
2018-04-02T15:02:23.588Z,6.75
2018-04-02T15:04:51.473Z,6.07
2018-04-02T15:07:19.089Z,6.20
2018-04-02T15:09:47.616Z,6.40
2018-04-02T15:12:16.030Z,5.43
2018-04-02T15:14:45.016Z,5.00
2018-04-02T15:17:13.992Z,4.70
2018-04-02T15:19:42.516Z,6.10
2018-04-02T15:22:10.462Z,5.60
2018-04-02T15:24:39.016Z,5.33
2018-04-02T15:27:06.812Z,5.07
2018-04-02T15:29:35.306Z,4.73
2018-04-02T15:32:02.961Z,5.33
2018-04-02T15:34:30.639Z,6.00
2018-04-02T15:36:58.302Z,6.13
2018-04-02T15:39:25.975Z,6.40
2018-04-02T15:41:53.586Z,6.20
2018-04-02T15:44:21.294Z,5.87
2018-04-02T15:46:48.939Z,6.93
2018-04-02T15:49:16.612Z,5.97
2018-04-02T15:51:44.238Z,5.75
2018-04-02T15:54:12.155Z,6.00
2018-04-02T15:56:42.370Z,6.47
2018-04-02T15:59:10.034Z,6.53
2018-04-02T16:01:37.689Z,5.83
2018-04-02T16:04:06.024Z,5.97
2018-04-02T16:06:33.825Z,5.50
2018-04-02T16:09:01.527Z,6.03
2018-04-02T16:11:29.944Z,6.43
2018-04-02T16:13:57.610Z,6.75
2018-04-02T16:16:25.237Z,6.30
2018-04-02T16:18:54.438Z,6.27
2018-04-02T16:21:22.161Z,7.07
2018-04-02T16:23:49.781Z,6.93
2018-04-02T16:26:17.433Z,5.93
2018-04-02T16:28:46.001Z,5.60
2018-04-02T16:31:15.062Z,5.60
2018-04-02T16:33:43.316Z,5.90
2018-04-02T16:36:10.971Z,6.10
2018-04-02T16:38:39.985Z,5.50
2018-04-02T16:41:07.621Z,5.95
2018-04-02T16:43:35.237Z,6.30
2018-04-02T16:46:03.895Z,5.83
2018-04-02T16:48:31.583Z,6.07
2018-04-02T16:50:59.370Z,6.40
2018-04-02T16:53:27.017Z,6.63
2018-04-02T16:55:54.678Z,7.07
2018-04-02T16:58:22.291Z,6.30
2018-04-02T17:00:49.942Z,6.93
2018-04-02T17:03:17.620Z,6.87
2018-04-02T17:05:45.269Z,6.68
2018-04-02T17:08:12.921Z,7.00
2018-04-02T17:10:40.900Z,6.60
2018-04-02T17:13:08.847Z,7.70
2018-04-02T17:15:36.461Z,7.07
2018-04-02T17:18:06.197Z,6.80
2018-04-02T17:20:33.882Z,7.80
2018-04-02T17:23:01.578Z,6.77
2018-04-02T17:25:29.249Z,7.05
2018-04-02T17:27:56.913Z,6.50
2018-04-02T17:30:24.553Z,7.15
2018-04-02T17:32:52.981Z,7.70
2018-04-02T17:35:23.205Z,8.40
2018-04-02T17:37:50.892Z,7.87
2018-04-02T17:40:20.272Z,9.10
2018-04-02T17:42:48.509Z,8.35
2018-04-02T17:45:16.170Z,9.52
2018-04-02T17:47:44.552Z,9.50
2018-04-02T17:50:12.933Z,10.00
2018-04-02T17:52:40.584Z,9.27
2018-04-02T17:55:08.218Z,20.00
2018-04-02T17:57:35.873Z,9.85
2018-04-02T18:00:03.712Z,10.30
2018-04-02T18:02:31.790Z,10.00
2018-04-02T18:05:00.301Z,9.37
2018-04-02T18:07:28.147Z,9.20
2018-04-02T18:11:40.354Z,10.10
2018-04-02T18:14:07.977Z,9.10
2018-04-02T18:16:35.664Z,9.13
2018-04-02T18:19:03.329Z,8.83
2018-04-02T18:21:31.505Z,10.07
2018-04-02T18:23:59.489Z,10.68
2018-04-02T18:26:27.637Z,11.03
2018-04-02T18:28:55.264Z,11.90
2018-04-02T18:31:22.914Z,10.80
2018-04-02T18:33:50.594Z,12.77
2018-04-02T18:36:18.214Z,13.27
2018-04-02T18:38:45.893Z,13.20
2018-04-02T18:41:13.510Z,13.90
2018-04-02T18:43:41.869Z,15.30
2018-04-02T18:46:09.554Z,14.07
2018-04-02T18:48:37.173Z,12.70
2018-04-02T18:51:04.829Z,12.53
2018-04-02T18:53:32.458Z,12.70
2018-04-02T18:56:00.276Z,13.20
2018-04-02T18:58:27.908Z,12.85
2018-04-02T19:00:55.566Z,13.20
2018-04-02T19:03:23.888Z,14.48
2018-04-02T19:05:51.540Z,15.25
2018-04-02T19:08:19.505Z,16.43
2018-04-02T19:10:47.157Z,15.80
2018-04-02T19:13:14.965Z,15.00
2018-04-02T19:15:42.721Z,15.48
2018-04-02T19:18:10.369Z,14.98
2018-04-02T19:20:37.989Z,16.10
2018-04-02T19:23:05.673Z,15.55
2018-04-02T19:25:33.320Z,14.98
2018-04-02T19:28:01.172Z,14.27
2018-04-02T19:30:28.801Z,14.38
2018-04-02T19:32:56.424Z,16.70
2018-04-02T19:35:24.092Z,16.37
2018-04-02T19:37:51.759Z,16.60
2018-04-02T19:40:19.613Z,17.83
2018-04-02T19:42:47.283Z,16.77
2018-04-02T19:45:14.897Z,17.23
2018-04-02T19:47:42.602Z,16.55
2018-04-02T19:50:10.257Z,17.27
2018-04-02T19:52:37.957Z,17.90
2018-04-02T19:55:06.506Z,16.57
2018-04-02T19:57:34.891Z,17.62
2018-04-02T20:00:02.514Z,16.93
2018-04-02T20:02:30.181Z,17.00
2018-04-02T20:04:57.862Z,16.77
2018-04-02T20:07:25.497Z,15.50
2018-04-02T20:09:54.044Z,15.97
2018-04-02T20:12:21.681Z,15.57
2018-04-02T20:14:49.329Z,15.77
2018-04-02T20:17:16.941Z,15.03
2018-04-02T20:19:44.601Z,16.13
2018-04-02T20:22:12.269Z,18.80
2018-04-02T20:24:39.928Z,17.53
2018-04-02T20:27:07.562Z,16.53
2018-04-02T20:29:35.226Z,16.87
2018-04-02T20:32:03.638Z,16.40
2018-04-02T20:34:31.410Z,17.58
2018-04-02T20:36:59.076Z,16.33
2018-04-02T20:39:26.749Z,18.20
2018-04-02T20:41:54.389Z,16.87
2018-04-02T20:44:21.997Z,15.97
2018-04-02T20:46:49.654Z,18.03
2018-04-02T20:49:17.369Z,18.13
2018-04-02T20:51:45.021Z,17.60
2018-04-02T20:54:12.862Z,18.13
2018-04-02T20:56:40.532Z,18.52
2018-04-02T20:59:08.158Z,18.13
2018-04-02T21:01:35.825Z,17.90
2018-04-02T21:04:04.211Z,17.30
2018-04-02T21:06:32.621Z,20.70
2018-04-02T21:09:00.252Z,19.93
2018-04-02T21:11:27.958Z,18.40
2018-04-02T21:13:56.245Z,20.00
2018-04-02T21:16:24.086Z,21.00
2018-04-02T21:18:51.763Z,19.23
2018-04-02T21:21:19.517Z,19.83
2018-04-02T21:23:47.129Z,19.30
2018-04-02T21:26:14.741Z,18.47
2018-04-02T21:28:42.429Z,21.93
2018-04-02T21:31:10.085Z,22.80
2018-04-02T21:33:37.937Z,21.45
2018-04-02T21:36:05.591Z,22.87
2018-04-02T21:38:33.253Z,22.08
2018-04-02T21:41:00.922Z,22.30
2018-04-02T21:43:28.581Z,21.45
2018-04-02T21:45:56.242Z,24.23
2018-04-02T21:48:23.905Z,24.98
2018-04-02T21:50:51.555Z,23.10
2018-04-02T21:53:19.390Z,24.50
2018-04-02T21:55:47.041Z,25.57
2018-04-02T21:58:14.705Z,25.73
2018-04-02T22:00:42.313Z,24.47
2018-04-02T22:03:11.469Z,24.58
2018-04-02T22:05:39.165Z,25.58
2018-04-02T22:08:10.054Z,24.83
2018-04-02T22:10:37.743Z,24.27
2018-04-02T22:13:05.384Z,25.43
2018-04-02T22:15:33.746Z,25.87
2018-04-02T22:18:01.401Z,24.47
2018-04-02T22:20:29.067Z,24.98
2018-04-02T22:22:56.685Z,24.20
2018-04-02T22:25:25.844Z,25.15
2018-04-02T22:27:53.464Z,26.60
2018-04-02T22:30:21.117Z,25.00
2018-04-02T22:32:48.731Z,26.15
2018-04-02T22:35:16.393Z,23.50
2018-04-02T22:37:44.396Z,24.75
2018-04-02T22:40:12.076Z,24.17
2018-04-02T22:42:41.598Z,23.63
2018-04-02T22:45:09.261Z,25.42
2018-04-02T22:47:36.904Z,25.83
2018-04-02T22:50:05.285Z,25.30
2018-04-02T22:52:33.532Z,26.83
2018-04-02T22:55:01.753Z,26.23
2018-04-02T22:57:29.453Z,24.10
2018-04-02T22:59:57.752Z,25.73
2018-04-02T23:02:25.414Z,26.97
2018-04-02T23:04:53.077Z,24.33
2018-04-02T23:07:21.502Z,25.60
2018-04-02T23:09:49.149Z,25.23
2018-04-02T23:12:17.004Z,25.87
2018-04-02T23:14:45.231Z,25.00
2018-04-02T23:17:12.843Z,25.37
2018-04-02T23:19:40.501Z,26.03
2018-04-02T23:22:08.152Z,25.30
2018-04-02T23:24:35.848Z,25.73
2018-04-02T23:27:03.519Z,26.25
2018-04-02T23:29:31.293Z,25.97
2018-04-02T23:31:58.933Z,27.17
2018-04-02T23:34:26.582Z,25.97
2018-04-02T23:36:54.253Z,26.85
2018-04-02T23:39:21.952Z,26.37
2018-04-02T23:41:49.565Z,27.60
2018-04-02T23:44:17.180Z,26.55
2018-04-02T23:46:44.832Z,26.12
2018-04-02T23:49:12.501Z,28.05
2018-04-02T23:51:40.912Z,28.62
2018-04-02T23:54:09.313Z,28.12
2018-04-02T23:56:36.944Z,31.20
2018-04-02T23:59:04.560Z,30.10
